createdAt,value
2022-10-18T00:02:46.797Z,83.73
2022-10-18T00:05:50.007Z,84.03
2022-10-18T00:08:52.517Z,84.33
2022-10-18T00:11:55.414Z,83.35
2022-10-18T00:14:57.796Z,83.38
2022-10-18T00:18:00.187Z,83.00
2022-10-18T00:21:22.795Z,84.46
2022-10-18T00:24:25.171Z,84.33
2022-10-18T00:27:29.712Z,84.07
2022-10-18T00:30:32.192Z,87.21
2022-10-18T00:33:34.557Z,86.38
2022-10-18T00:36:37.014Z,86.37
2022-10-18T00:39:39.509Z,84.86
2022-10-18T00:42:41.834Z,85.61
2022-10-18T00:45:44.325Z,84.98
2022-10-18T00:48:46.762Z,84.66
2022-10-18T00:52:11.820Z,84.47
2022-10-18T00:55:14.311Z,85.46
2022-10-18T00:58:17.490Z,84.52
2022-10-18T01:01:22.269Z,87.40
2022-10-18T01:04:27.086Z,88.85
2022-10-18T01:07:35.516Z,88.10
2022-10-18T01:10:47.831Z,89.20
2022-10-18T01:14:11.234Z,89.01
2022-10-18T01:17:19.338Z,89.29
2022-10-18T01:20:55.752Z,89.79
2022-10-18T01:24:16.443Z,88.65
2022-10-18T01:27:24.504Z,87.87
2022-10-18T01:30:33.529Z,88.92
2022-10-18T01:33:43.193Z,89.04
2022-10-18T01:36:51.312Z,88.48
2022-10-18T01:39:55.208Z,87.43
2022-10-18T01:42:57.629Z,86.66
2022-10-18T01:46:00.702Z,85.55
2022-10-18T01:49:04.204Z,85.93
2022-10-18T01:55:14.548Z,86.45
2022-10-18T01:58:26.102Z,85.27
2022-10-18T02:01:37.615Z,84.16
2022-10-18T02:04:59.067Z,85.12
2022-10-18T02:08:23.758Z,84.04
2022-10-18T02:11:28.164Z,84.90
2022-10-18T02:14:30.851Z,85.57
2022-10-18T02:17:33.512Z,86.31
2022-10-18T02:20:36.680Z,85.11
2022-10-18T02:23:39.221Z,85.03
2022-10-18T02:26:42.110Z,85.44
2022-10-18T02:29:44.680Z,85.10
2022-10-18T02:32:58.784Z,84.60
2022-10-18T02:36:06.572Z,85.58
2022-10-18T02:39:16.566Z,84.84
2022-10-18T02:42:18.955Z,83.85
2022-10-18T02:45:21.428Z,84.56
2022-10-18T02:48:23.870Z,84.86
2022-10-18T02:51:26.248Z,84.46
2022-10-18T02:54:28.741Z,84.52
2022-10-18T02:57:31.462Z,84.73
2022-10-18T03:00:34.228Z,84.06
2022-10-18T03:03:36.561Z,83.75
2022-10-18T03:06:38.979Z,84.18
2022-10-18T03:09:41.335Z,85.51
2022-10-18T03:12:43.667Z,86.00
2022-10-18T03:15:47.924Z,85.45
2022-10-18T03:18:50.326Z,85.82
2022-10-18T03:21:52.729Z,86.76
2022-10-18T03:24:55.116Z,87.69
2022-10-18T03:27:57.471Z,88.68
2022-10-18T03:31:02.097Z,88.03
2022-10-18T03:34:04.840Z,88.45
2022-10-18T03:37:07.221Z,88.48
2022-10-18T03:40:10.177Z,86.65
2022-10-18T03:43:13.125Z,87.63
2022-10-18T03:46:15.567Z,87.60
2022-10-18T03:49:17.907Z,87.17
2022-10-18T03:52:20.267Z,87.68
2022-10-18T03:55:22.640Z,88.92
2022-10-18T03:58:25.192Z,88.20
2022-10-18T04:01:27.746Z,89.40
2022-10-18T04:04:30.159Z,89.19
2022-10-18T04:07:32.562Z,89.91
2022-10-18T04:10:37.587Z,89.55
2022-10-18T04:13:40.155Z,87.25
2022-10-18T04:16:42.567Z,87.57
2022-10-18T04:19:44.980Z,86.49
2022-10-18T04:22:48.454Z,86.96
2022-10-18T04:25:50.826Z,87.17
2022-10-18T04:28:53.299Z,87.36
2022-10-18T04:31:55.784Z,87.62
2022-10-18T04:34:58.172Z,87.32
2022-10-18T04:38:00.529Z,88.34
2022-10-18T04:41:04.160Z,88.46
2022-10-18T04:44:06.541Z,87.49
2022-10-18T04:47:08.917Z,86.64
2022-10-18T04:50:11.239Z,86.90
2022-10-18T04:53:13.613Z,86.25
2022-10-18T04:56:16.716Z,86.35
2022-10-18T04:59:19.288Z,86.12
2022-10-18T05:02:21.929Z,86.24
2022-10-18T05:05:27.031Z,86.60
2022-10-18T05:08:36.523Z,86.45
2022-10-18T05:11:39.039Z,86.67
2022-10-18T05:14:41.737Z,86.42
2022-10-18T05:17:44.228Z,85.71
2022-10-18T05:20:47.005Z,85.49
2022-10-18T05:23:49.409Z,87.17
2022-10-18T05:26:51.771Z,86.71
2022-10-18T05:29:54.140Z,85.59
2022-10-18T05:32:56.456Z,86.09
2022-10-18T05:35:59.171Z,86.74
2022-10-18T05:39:05.262Z,86.02
2022-10-18T05:42:08.728Z,86.31
2022-10-18T05:45:11.108Z,86.47
2022-10-18T05:48:13.460Z,85.35
2022-10-18T05:51:15.880Z,86.06
2022-10-18T05:54:18.311Z,85.46
2022-10-18T05:57:20.743Z,85.13
2022-10-18T06:00:23.143Z,85.74
2022-10-18T06:03:27.494Z,85.06
2022-10-18T06:06:30.960Z,85.79
2022-10-18T06:09:33.417Z,85.47
2022-10-18T06:12:35.816Z,85.62
2022-10-18T06:15:38.186Z,85.68
2022-10-18T06:18:41.032Z,85.80
2022-10-18T06:21:43.833Z,86.71
2022-10-18T06:24:46.153Z,85.75
2022-10-18T06:27:48.490Z,86.02
2022-10-18T06:30:50.963Z,86.83
2022-10-18T06:33:53.264Z,85.46
2022-10-18T06:36:56.544Z,85.67
2022-10-18T06:40:01.043Z,85.07
2022-10-18T06:43:20.535Z,85.80
2022-10-18T06:46:24.116Z,86.07
2022-10-18T06:49:26.421Z,85.50
2022-10-18T06:52:29.629Z,85.94
2022-10-18T06:55:32.411Z,86.00
2022-10-18T06:58:35.507Z,85.46
2022-10-18T07:01:38.235Z,85.08
2022-10-18T07:04:40.669Z,83.70
2022-10-18T07:07:42.988Z,82.82
2022-10-18T07:10:53.137Z,81.28
2022-10-18T07:14:02.289Z,81.64
2022-10-18T07:17:04.699Z,81.86
2022-10-18T07:20:07.586Z,81.32
2022-10-18T07:23:11.640Z,81.30
2022-10-18T07:26:16.968Z,81.29
2022-10-18T07:29:19.387Z,80.56
2022-10-18T07:32:21.920Z,79.30
2022-10-18T07:35:24.335Z,78.05
2022-10-18T07:38:26.677Z,76.89
2022-10-18T07:41:29.995Z,77.52
2022-10-18T07:44:32.374Z,77.71
2022-10-18T07:47:35.374Z,78.12
2022-10-18T07:50:38.042Z,76.59
2022-10-18T07:53:40.798Z,76.39
2022-10-18T07:56:43.171Z,75.79
2022-10-18T07:59:48.020Z,75.99
2022-10-18T08:02:56.452Z,76.14
2022-10-18T08:05:58.915Z,77.07
2022-10-18T08:09:01.576Z,76.76
2022-10-18T08:12:06.673Z,76.15
2022-10-18T08:15:09.350Z,74.92
2022-10-18T08:18:11.884Z,74.08
2022-10-18T08:21:15.787Z,72.36
2022-10-18T08:24:18.122Z,70.90
2022-10-18T08:27:20.623Z,71.84
2022-10-18T08:30:26.049Z,72.61
2022-10-18T08:33:28.390Z,71.94
2022-10-18T08:36:30.759Z,71.40
2022-10-18T08:39:33.253Z,70.42
2022-10-18T08:43:03.158Z,71.49
2022-10-18T08:46:05.572Z,70.67
2022-10-18T08:49:15.566Z,70.24
2022-10-18T08:52:34.733Z,69.87
2022-10-18T08:55:41.301Z,68.84
2022-10-18T08:58:44.409Z,68.18
2022-10-18T09:01:49.693Z,66.60
2022-10-18T09:05:14.503Z,66.80
2022-10-18T09:08:20.282Z,67.23
2022-10-18T09:11:41.999Z,65.01
2022-10-18T09:14:47.388Z,65.96
2022-10-18T09:18:20.477Z,64.32
2022-10-18T09:21:35.314Z,63.57
2022-10-18T09:24:40.727Z,64.13
2022-10-18T09:27:54.521Z,63.53
2022-10-18T09:31:16.753Z,61.79
2022-10-18T09:34:33.512Z,60.44
2022-10-18T09:37:36.087Z,59.03
2022-10-18T09:40:47.177Z,59.92
2022-10-18T09:43:57.336Z,58.47
2022-10-18T09:47:16.511Z,58.60
2022-10-18T09:50:36.866Z,57.08
2022-10-18T09:54:20.948Z,57.67
2022-10-18T09:57:32.068Z,59.45
2022-10-18T10:00:39.218Z,60.02
2022-10-18T10:03:44.808Z,57.92
2022-10-18T10:06:52.110Z,56.94
2022-10-18T10:10:08.930Z,55.94
2022-10-18T10:13:22.883Z,55.42
2022-10-18T10:16:26.795Z,56.65
2022-10-18T10:19:32.623Z,55.87
2022-10-18T10:22:39.419Z,56.86
2022-10-18T10:25:42.642Z,56.21
2022-10-18T10:28:48.649Z,54.12
2022-10-18T10:32:04.011Z,55.02
2022-10-18T10:35:34.059Z,55.86
2022-10-18T10:38:44.866Z,55.28
2022-10-18T10:41:49.098Z,54.13
2022-10-18T10:44:54.606Z,55.03
2022-10-18T10:48:22.767Z,52.99
2022-10-18T10:51:28.233Z,51.80
2022-10-18T10:54:36.467Z,53.88
2022-10-18T10:57:38.906Z,52.16
2022-10-18T11:00:44.146Z,51.66
2022-10-18T11:03:48.667Z,52.76
2022-10-18T11:06:58.017Z,51.71
2022-10-18T11:10:08.376Z,51.02
2022-10-18T11:13:37.000Z,51.57
2022-10-18T11:17:14.644Z,52.18
2022-10-18T11:20:29.918Z,51.09
2022-10-18T11:23:33.652Z,51.74
2022-10-18T11:26:53.454Z,52.64
2022-10-18T11:30:31.459Z,52.58
2022-10-18T11:34:14.552Z,51.42
2022-10-18T11:37:28.561Z,52.03
2022-10-18T11:40:42.745Z,50.09
2022-10-18T11:44:03.164Z,50.96
2022-10-18T11:47:12.044Z,51.68
2022-10-18T11:50:37.816Z,51.44
2022-10-18T11:53:58.757Z,51.78
2022-10-18T11:57:38.687Z,50.14
2022-10-18T12:01:07.404Z,50.01
2022-10-18T12:04:17.892Z,49.77
2022-10-18T12:07:26.793Z,50.57
2022-10-18T12:10:46.044Z,50.47
2022-10-18T12:14:01.253Z,51.10
2022-10-18T12:17:39.843Z,50.91
2022-10-18T12:20:42.508Z,50.09
2022-10-18T12:23:51.627Z,47.19
2022-10-18T12:27:00.812Z,45.77
2022-10-18T12:30:07.532Z,44.77
2022-10-18T12:33:28.824Z,43.86
2022-10-18T12:36:43.536Z,43.55
2022-10-18T12:40:21.695Z,44.06
2022-10-18T12:43:23.144Z,43.82
2022-10-18T12:46:43.392Z,43.12
2022-10-18T12:49:55.981Z,42.85
2022-10-18T12:53:03.832Z,42.33
2022-10-18T12:56:28.144Z,41.13
2022-10-18T12:59:30.434Z,41.39
2022-10-18T13:02:33.124Z,41.53
2022-10-18T13:05:56.220Z,40.97
2022-10-18T13:09:19.952Z,41.08
2022-10-18T13:12:22.249Z,40.89
2022-10-18T13:15:40.848Z,41.05
2022-10-18T13:18:58.438Z,40.19
2022-10-18T13:22:15.189Z,40.06
2022-10-18T13:25:51.550Z,38.41
2022-10-18T13:29:09.648Z,39.34
2022-10-18T13:32:27.612Z,39.25
2022-10-18T13:35:55.841Z,38.36
2022-10-18T13:39:02.486Z,37.66
2022-10-18T13:42:14.121Z,37.86
2022-10-18T13:45:44.578Z,38.31
2022-10-18T13:48:54.676Z,38.15
2022-10-18T13:52:12.377Z,38.00
2022-10-18T13:55:52.105Z,37.04
2022-10-18T13:59:33.517Z,37.66
2022-10-18T14:03:02.564Z,38.53
2022-10-18T14:06:28.575Z,38.96
2022-10-18T14:09:52.350Z,38.74
2022-10-18T14:12:58.481Z,38.12
2022-10-18T14:16:07.309Z,38.52
2022-10-18T14:19:29.620Z,38.40
2022-10-18T14:22:32.062Z,38.83
2022-10-18T14:25:36.233Z,38.80
2022-10-18T14:28:58.491Z,38.89
2022-10-18T14:32:00.979Z,38.88
2022-10-18T14:38:26.328Z,39.09
2022-10-18T14:41:29.979Z,40.28
2022-10-18T14:44:32.370Z,40.30
2022-10-18T14:47:37.293Z,40.73
2022-10-18T14:50:40.308Z,41.06
2022-10-18T14:53:43.032Z,41.31
2022-10-18T14:56:45.719Z,42.26
2022-10-18T14:59:56.935Z,43.22
2022-10-18T15:02:59.314Z,43.98
2022-10-18T15:06:05.107Z,44.24
2022-10-18T15:09:07.538Z,44.47
2022-10-18T15:12:12.972Z,45.16
2022-10-18T15:15:21.431Z,45.65
2022-10-18T15:18:25.723Z,48.25
2022-10-18T15:21:28.264Z,50.31
2022-10-18T15:24:36.500Z,51.72
2022-10-18T15:27:39.768Z,52.23
2022-10-18T15:30:43.122Z,52.41
2022-10-18T15:33:45.736Z,53.29
2022-10-18T15:36:50.722Z,53.83
2022-10-18T15:40:24.163Z,54.05
2022-10-18T15:43:26.523Z,54.62
2022-10-18T15:46:32.003Z,54.67
2022-10-18T15:49:47.632Z,54.98
2022-10-18T15:52:50.155Z,55.57
2022-10-18T15:56:00.334Z,55.93
2022-10-18T15:59:06.647Z,55.63
2022-10-18T16:02:12.812Z,55.98
2022-10-18T16:05:20.838Z,55.92
2022-10-18T16:08:25.502Z,56.00
2022-10-18T16:11:28.420Z,56.43
2022-10-18T16:14:30.942Z,56.58
2022-10-18T16:17:33.572Z,56.57
2022-10-18T16:20:36.336Z,56.81
2022-10-18T16:23:38.680Z,57.20
2022-10-18T16:26:41.439Z,57.70
2022-10-18T16:29:43.763Z,57.71
2022-10-18T16:32:46.622Z,58.34
2022-10-18T16:35:49.506Z,58.32
2022-10-18T16:38:52.041Z,58.19
2022-10-18T16:41:54.523Z,57.96
2022-10-18T16:44:58.592Z,57.85
2022-10-18T16:48:00.922Z,57.57
2022-10-18T16:51:03.893Z,57.90
2022-10-18T16:54:06.241Z,57.49
2022-10-18T16:57:11.680Z,58.17
2022-10-18T17:00:18.707Z,58.06
2022-10-18T17:03:21.422Z,57.79
2022-10-18T17:06:29.379Z,57.61
2022-10-18T17:09:31.828Z,57.63
2022-10-18T17:12:34.460Z,58.15
2022-10-18T17:15:37.122Z,57.75
2022-10-18T17:18:39.487Z,57.05
2022-10-18T17:21:42.443Z,56.70
2022-10-18T17:24:44.931Z,56.44
2022-10-18T17:27:47.312Z,56.53
2022-10-18T17:30:56.652Z,56.67
2022-10-18T17:34:01.488Z,56.76
2022-10-18T17:37:04.805Z,57.46
2022-10-18T17:40:08.239Z,58.34
2022-10-18T17:43:10.796Z,58.04
2022-10-18T17:46:14.265Z,58.04
2022-10-18T17:49:17.154Z,57.93
2022-10-18T17:52:19.471Z,58.39
2022-10-18T17:55:21.796Z,58.53
2022-10-18T17:58:24.243Z,58.58
2022-10-18T18:01:26.764Z,58.86
2022-10-18T18:04:29.224Z,58.57
2022-10-18T18:07:31.722Z,58.70
2022-10-18T18:10:35.055Z,58.76
2022-10-18T18:13:37.492Z,58.80
2022-10-18T18:16:43.002Z,59.10
2022-10-18T18:19:45.360Z,58.22
2022-10-18T18:22:47.786Z,58.15
2022-10-18T18:25:57.472Z,58.32
2022-10-18T18:29:00.290Z,58.90
2022-10-18T18:32:03.403Z,59.82
2022-10-18T18:35:06.083Z,59.79
2022-10-18T18:38:09.100Z,59.95
2022-10-18T18:41:17.559Z,60.57
2022-10-18T18:44:20.908Z,60.40
2022-10-18T18:47:23.494Z,62.02
2022-10-18T18:50:28.194Z,64.06
2022-10-18T18:53:31.102Z,69.16
2022-10-18T18:56:34.048Z,70.47
2022-10-18T18:59:36.492Z,71.07
2022-10-18T19:02:39.000Z,70.83
2022-10-18T19:05:41.420Z,70.61
2022-10-18T19:08:46.992Z,71.06
2022-10-18T19:11:52.344Z,71.38
2022-10-18T19:14:54.802Z,71.00
2022-10-18T19:17:57.262Z,71.07
2022-10-18T19:20:59.702Z,71.65
2022-10-18T19:24:02.708Z,72.71
2022-10-18T19:27:12.292Z,74.01
2022-10-18T19:30:14.836Z,74.07
2022-10-18T19:33:35.508Z,73.85
2022-10-18T19:36:46.279Z,73.60
2022-10-18T19:39:48.974Z,73.29
2022-10-18T19:42:51.373Z,73.00
2022-10-18T19:45:53.745Z,71.13
2022-10-18T19:48:56.100Z,69.75
2022-10-18T19:51:58.652Z,68.87
2022-10-18T19:55:01.049Z,68.44
2022-10-18T19:58:03.552Z,69.21
2022-10-18T20:01:06.455Z,70.21
2022-10-18T20:04:09.974Z,71.75
2022-10-18T20:07:12.354Z,73.46
2022-10-18T20:10:16.977Z,74.55
2022-10-18T20:13:20.025Z,75.15
2022-10-18T20:16:28.087Z,77.16
2022-10-18T20:19:31.527Z,77.21
2022-10-18T20:22:34.268Z,76.80
2022-10-18T20:25:36.853Z,76.84
2022-10-18T20:28:39.775Z,76.51
2022-10-18T20:31:42.160Z,76.86
2022-10-18T20:34:44.556Z,75.67
2022-10-18T20:37:47.397Z,76.03
2022-10-18T20:40:52.221Z,76.33
2022-10-18T20:43:59.947Z,75.77
2022-10-18T20:47:02.289Z,78.58
2022-10-18T20:50:05.128Z,77.90
2022-10-18T20:53:07.605Z,78.32
2022-10-18T20:56:12.773Z,78.69
2022-10-18T20:59:15.243Z,78.18
2022-10-18T21:02:17.615Z,77.85
2022-10-18T21:05:19.963Z,77.71
2022-10-18T21:08:22.384Z,77.59
2022-10-18T21:11:26.020Z,78.09
2022-10-18T21:14:28.448Z,77.97
2022-10-18T21:17:30.936Z,77.95
2022-10-18T21:20:34.660Z,79.00
2022-10-18T21:23:37.409Z,79.49
2022-10-18T21:26:40.383Z,79.50
2022-10-18T21:29:42.715Z,79.31
2022-10-18T21:32:45.125Z,78.41
2022-10-18T21:35:47.473Z,78.07
2022-10-18T21:38:49.864Z,78.33
2022-10-18T21:41:52.317Z,78.81
2022-10-18T21:44:54.725Z,77.91
2022-10-18T21:47:57.092Z,78.94
2022-10-18T21:51:07.901Z,80.92
2022-10-18T21:54:14.982Z,82.42
2022-10-18T21:57:17.339Z,82.03
2022-10-18T22:00:20.834Z,81.68
2022-10-18T22:03:23.388Z,81.45
2022-10-18T22:06:32.053Z,81.77
2022-10-18T22:09:34.587Z,82.19
2022-10-18T22:12:37.065Z,81.25
2022-10-18T22:15:39.465Z,81.55
2022-10-18T22:18:43.381Z,81.62
2022-10-18T22:21:45.891Z,82.24
2022-10-18T22:24:48.284Z,81.43
2022-10-18T22:27:50.769Z,81.63
2022-10-18T22:30:53.232Z,82.45
2022-10-18T22:33:58.494Z,81.58
2022-10-18T22:37:00.975Z,81.05
2022-10-18T22:40:04.320Z,82.00
2022-10-18T22:43:06.731Z,80.92
2022-10-18T22:46:12.206Z,80.58
2022-10-18T22:49:14.796Z,80.23
2022-10-18T22:52:17.272Z,80.27
2022-10-18T22:55:19.663Z,82.40
2022-10-18T22:58:22.242Z,82.67
2022-10-18T23:01:25.316Z,81.61
2022-10-18T23:04:27.962Z,81.67
2022-10-18T23:07:30.383Z,81.52
2022-10-18T23:10:38.206Z,81.79
2022-10-18T23:13:40.662Z,81.92
2022-10-18T23:16:43.382Z,82.25
2022-10-18T23:19:46.264Z,82.31
2022-10-18T23:22:48.707Z,82.25
2022-10-18T23:25:53.904Z,82.65
2022-10-18T23:28:57.314Z,83.41
2022-10-18T23:31:59.755Z,83.98
2022-10-18T23:35:02.158Z,84.58
2022-10-18T23:38:04.598Z,84.35
2022-10-18T23:41:10.151Z,82.68
2022-10-18T23:44:12.682Z,81.58
2022-10-18T23:47:15.576Z,81.90
2022-10-18T23:50:20.503Z,82.10
2022-10-18T23:53:23.285Z,81.79
2022-10-18T23:56:25.888Z,81.34
2022-10-18T23:59:28.313Z,80.79
